sensor_id;sensor_type;location;lat;lon;timestamp;temperature;humidity
22112;DHT22;11222;50.872;4.312;2022-09-21T00:00:22;11.50;99.90
22112;DHT22;11222;50.872;4.312;2022-09-21T00:02:49;11.50;99.90
22112;DHT22;11222;50.872;4.312;2022-09-21T00:05:15;11.50;99.90
22112;DHT22;11222;50.872;4.312;2022-09-21T00:07:41;11.40;99.90
22112;DHT22;11222;50.872;4.312;2022-09-21T00:10:08;11.50;99.90
22112;DHT22;11222;50.872;4.312;2022-09-21T00:12:34;11.40;99.90
22112;DHT22;11222;50.872;4.312;2022-09-21T00:15:08;11.40;99.90
22112;DHT22;11222;50.872;4.312;2022-09-21T00:17:35;11.40;99.90
22112;DHT22;11222;50.872;4.312;2022-09-21T00:20:01;11.40;99.90
22112;DHT22;11222;50.872;4.312;2022-09-21T00:22:31;11.30;99.90
22112;DHT22;11222;50.872;4.312;2022-09-21T00:24:57;11.30;99.90
22112;DHT22;11222;50.872;4.312;2022-09-21T00:27:23;11.20;99.90
22112;DHT22;11222;50.872;4.312;2022-09-21T00:29:55;11.20;99.90
22112;DHT22;11222;50.872;4.312;2022-09-21T00:32:21;11.20;99.90
22112;DHT22;11222;50.872;4.312;2022-09-21T00:34:50;11.20;99.90
22112;DHT22;11222;50.872;4.312;2022-09-21T00:37:17;11.20;99.90
22112;DHT22;11222;50.872;4.312;2022-09-21T00:39:43;11.20;99.90
22112;DHT22;11222;50.872;4.312;2022-09-21T00:42:12;11.10;99.90
22112;DHT22;11222;50.872;4.312;2022-09-21T00:44:39;11.10;99.90
22112;DHT22;11222;50.872;4.312;2022-09-21T00:47:13;11.10;99.90
22112;DHT22;11222;50.872;4.312;2022-09-21T00:49:41;11.10;99.90
22112;DHT22;11222;50.872;4.312;2022-09-21T00:52:09;11.10;99.90
22112;DHT22;11222;50.872;4.312;2022-09-21T00:54:42;11.10;99.90
22112;DHT22;11222;50.872;4.312;2022-09-21T00:57:10;11.10;99.90
22112;DHT22;11222;50.872;4.312;2022-09-21T00:59:37;11.10;99.90
22112;DHT22;11222;50.872;4.312;2022-09-21T01:02:04;11.10;99.90
22112;DHT22;11222;50.872;4.312;2022-09-21T01:04:30;11.10;99.90
22112;DHT22;11222;50.872;4.312;2022-09-21T01:06:58;11.10;99.90
22112;DHT22;11222;50.872;4.312;2022-09-21T01:09:27;11.00;99.90
22112;DHT22;11222;50.872;4.312;2022-09-21T01:29:12;10.80;99.90
22112;DHT22;11222;50.872;4.312;2022-09-21T01:34:28;10.90;99.90
22112;DHT22;11222;50.872;4.312;2022-09-21T01:36:57;10.80;99.90
22112;DHT22;11222;50.872;4.312;2022-09-21T01:39:25;10.80;99.90
22112;DHT22;11222;50.872;4.312;2022-09-21T01:41:53;10.80;99.90
22112;DHT22;11222;50.872;4.312;2022-09-21T01:44:24;10.90;99.90
22112;DHT22;11222;50.872;4.312;2022-09-21T01:46:52;10.80;99.90
22112;DHT22;11222;50.872;4.312;2022-09-21T01:49:28;10.80;99.90
22112;DHT22;11222;50.872;4.312;2022-09-21T01:51:58;10.80;99.90
22112;DHT22;11222;50.872;4.312;2022-09-21T01:54:39;10.70;99.90
22112;DHT22;11222;50.872;4.312;2022-09-21T02:05:10;10.80;99.90
22112;DHT22;11222;50.872;4.312;2022-09-21T02:07:37;10.70;99.90
22112;DHT22;11222;50.872;4.312;2022-09-21T02:10:06;10.90;99.90
22112;DHT22;11222;50.872;4.312;2022-09-21T02:12:33;10.90;99.90
22112;DHT22;11222;50.872;4.312;2022-09-21T02:14:59;11.00;99.90
22112;DHT22;11222;50.872;4.312;2022-09-21T02:20:39;10.90;99.90
22112;DHT22;11222;50.872;4.312;2022-09-21T02:23:22;11.00;99.90
22112;DHT22;11222;50.872;4.312;2022-09-21T02:26:04;10.80;99.90
22112;DHT22;11222;50.872;4.312;2022-09-21T02:28:42;10.70;99.90
22112;DHT22;11222;50.872;4.312;2022-09-21T02:34:00;10.70;99.90
22112;DHT22;11222;50.872;4.312;2022-09-21T02:36:32;10.70;99.90
22112;DHT22;11222;50.872;4.312;2022-09-21T02:39:23;10.80;99.90
22112;DHT22;11222;50.872;4.312;2022-09-21T02:42:09;10.80;99.90
22112;DHT22;11222;50.872;4.312;2022-09-21T02:44:47;10.70;99.90
22112;DHT22;11222;50.872;4.312;2022-09-21T02:47:18;10.70;99.90
22112;DHT22;11222;50.872;4.312;2022-09-21T02:49:52;10.60;99.90
22112;DHT22;11222;50.872;4.312;2022-09-21T02:52:19;10.50;99.90
22112;DHT22;11222;50.872;4.312;2022-09-21T02:54:49;10.50;99.90
22112;DHT22;11222;50.872;4.312;2022-09-21T02:57:18;10.50;99.90
22112;DHT22;11222;50.872;4.312;2022-09-21T02:59:44;10.30;99.90
22112;DHT22;11222;50.872;4.312;2022-09-21T03:02:11;10.30;99.90
22112;DHT22;11222;50.872;4.312;2022-09-21T03:04:38;10.30;99.90
22112;DHT22;11222;50.872;4.312;2022-09-21T03:07:09;10.30;99.90
22112;DHT22;11222;50.872;4.312;2022-09-21T03:09:34;10.20;99.90
22112;DHT22;11222;50.872;4.312;2022-09-21T03:12:00;10.30;99.90
22112;DHT22;11222;50.872;4.312;2022-09-21T03:14:26;10.30;99.90
22112;DHT22;11222;50.872;4.312;2022-09-21T03:16:52;10.30;99.90
22112;DHT22;11222;50.872;4.312;2022-09-21T03:19:19;10.30;99.90
22112;DHT22;11222;50.872;4.312;2022-09-21T03:21:44;10.30;99.90
22112;DHT22;11222;50.872;4.312;2022-09-21T03:24:10;10.20;99.90
22112;DHT22;11222;50.872;4.312;2022-09-21T03:26:36;10.20;99.90
22112;DHT22;11222;50.872;4.312;2022-09-21T03:29:02;10.20;99.90
22112;DHT22;11222;50.872;4.312;2022-09-21T03:31:28;10.20;99.90
22112;DHT22;11222;50.872;4.312;2022-09-21T03:33:55;10.20;99.90
22112;DHT22;11222;50.872;4.312;2022-09-21T03:36:21;10.20;99.90
22112;DHT22;11222;50.872;4.312;2022-09-21T03:38:47;10.20;99.90
22112;DHT22;11222;50.872;4.312;2022-09-21T03:41:12;10.10;99.90
22112;DHT22;11222;50.872;4.312;2022-09-21T03:43:39;10.10;99.90
22112;DHT22;11222;50.872;4.312;2022-09-21T03:46:05;10.10;99.90
22112;DHT22;11222;50.872;4.312;2022-09-21T03:48:30;10.10;99.90
22112;DHT22;11222;50.872;4.312;2022-09-21T03:50:57;10.00;99.90
22112;DHT22;11222;50.872;4.312;2022-09-21T03:53:23;10.00;99.90
22112;DHT22;11222;50.872;4.312;2022-09-21T03:55:48;10.00;99.90
22112;DHT22;11222;50.872;4.312;2022-09-21T03:58:14;10.10;99.90
22112;DHT22;11222;50.872;4.312;2022-09-21T04:00:40;10.10;99.90
22112;DHT22;11222;50.872;4.312;2022-09-21T04:03:06;10.10;99.90
22112;DHT22;11222;50.872;4.312;2022-09-21T04:05:32;10.10;99.90
22112;DHT22;11222;50.872;4.312;2022-09-21T04:07:58;10.10;99.90
22112;DHT22;11222;50.872;4.312;2022-09-21T04:10:26;10.10;99.90
22112;DHT22;11222;50.872;4.312;2022-09-21T04:12:58;10.20;99.90
22112;DHT22;11222;50.872;4.312;2022-09-21T04:15:25;10.10;99.90
22112;DHT22;11222;50.872;4.312;2022-09-21T04:17:52;10.10;99.90
22112;DHT22;11222;50.872;4.312;2022-09-21T04:20:19;10.10;99.90
22112;DHT22;11222;50.872;4.312;2022-09-21T04:22:45;10.10;99.90
22112;DHT22;11222;50.872;4.312;2022-09-21T04:25:12;10.10;99.90
22112;DHT22;11222;50.872;4.312;2022-09-21T04:27:38;10.00;99.90
22112;DHT22;11222;50.872;4.312;2022-09-21T04:30:04;9.90;99.90
22112;DHT22;11222;50.872;4.312;2022-09-21T04:32:30;9.90;99.90
22112;DHT22;11222;50.872;4.312;2022-09-21T04:34:56;9.90;99.90
22112;DHT22;11222;50.872;4.312;2022-09-21T04:37:22;9.90;99.90
22112;DHT22;11222;50.872;4.312;2022-09-21T04:39:48;9.80;99.90
22112;DHT22;11222;50.872;4.312;2022-09-21T04:42:14;9.80;99.90
22112;DHT22;11222;50.872;4.312;2022-09-21T04:44:39;9.90;99.90
22112;DHT22;11222;50.872;4.312;2022-09-21T04:47:05;9.90;99.90
22112;DHT22;11222;50.872;4.312;2022-09-21T04:49:31;9.90;99.90
22112;DHT22;11222;50.872;4.312;2022-09-21T04:51:57;9.90;99.90
22112;DHT22;11222;50.872;4.312;2022-09-21T04:54:22;9.90;99.90
22112;DHT22;11222;50.872;4.312;2022-09-21T04:56:48;9.80;99.90
22112;DHT22;11222;50.872;4.312;2022-09-21T04:59:14;9.80;99.90
22112;DHT22;11222;50.872;4.312;2022-09-21T05:01:40;9.90;99.90
22112;DHT22;11222;50.872;4.312;2022-09-21T05:04:05;9.90;99.90
22112;DHT22;11222;50.872;4.312;2022-09-21T05:06:32;9.90;99.90
22112;DHT22;11222;50.872;4.312;2022-09-21T05:08:58;9.90;99.90
22112;DHT22;11222;50.872;4.312;2022-09-21T05:11:43;10.00;99.90
22112;DHT22;11222;50.872;4.312;2022-09-21T05:14:09;9.90;99.90
22112;DHT22;11222;50.872;4.312;2022-09-21T05:16:36;9.90;99.90
22112;DHT22;11222;50.872;4.312;2022-09-21T05:19:02;9.90;99.90
22112;DHT22;11222;50.872;4.312;2022-09-21T05:21:28;9.70;99.90
22112;DHT22;11222;50.872;4.312;2022-09-21T05:23:56;9.70;99.90
22112;DHT22;11222;50.872;4.312;2022-09-21T05:26:22;9.60;99.90
22112;DHT22;11222;50.872;4.312;2022-09-21T05:28:48;9.60;99.90
22112;DHT22;11222;50.872;4.312;2022-09-21T05:34:04;9.60;99.90
22112;DHT22;11222;50.872;4.312;2022-09-21T05:39:34;9.70;99.90
22112;DHT22;11222;50.872;4.312;2022-09-21T05:42:00;9.70;99.90
22112;DHT22;11222;50.872;4.312;2022-09-21T05:44:26;9.90;99.90
22112;DHT22;11222;50.872;4.312;2022-09-21T05:47:23;10.00;99.90
22112;DHT22;11222;50.872;4.312;2022-09-21T05:50:00;10.00;99.90
22112;DHT22;11222;50.872;4.312;2022-09-21T05:57:58;10.20;99.90
22112;DHT22;11222;50.872;4.312;2022-09-21T06:00:36;10.30;99.90
22112;DHT22;11222;50.872;4.312;2022-09-21T06:06:08;10.50;99.90
22112;DHT22;11222;50.872;4.312;2022-09-21T06:08:34;10.70;99.90
22112;DHT22;11222;50.872;4.312;2022-09-21T06:11:00;10.70;99.90
22112;DHT22;11222;50.872;4.312;2022-09-21T06:13:26;10.80;99.90
22112;DHT22;11222;50.872;4.312;2022-09-21T06:15:51;10.80;99.90
22112;DHT22;11222;50.872;4.312;2022-09-21T06:18:18;10.80;99.90
22112;DHT22;11222;50.872;4.312;2022-09-21T06:20:44;10.90;99.90
22112;DHT22;11222;50.872;4.312;2022-09-21T06:23:12;10.90;99.90
22112;DHT22;11222;50.872;4.312;2022-09-21T06:25:38;10.90;99.90
22112;DHT22;11222;50.872;4.312;2022-09-21T06:28:09;10.90;99.90
22112;DHT22;11222;50.872;4.312;2022-09-21T06:30:35;10.90;99.90
22112;DHT22;11222;50.872;4.312;2022-09-21T06:33:03;11.00;99.90
22112;DHT22;11222;50.872;4.312;2022-09-21T06:35:30;11.00;99.90
22112;DHT22;11222;50.872;4.312;2022-09-21T06:37:59;11.10;99.90
22112;DHT22;11222;50.872;4.312;2022-09-21T06:40:29;11.10;99.90
22112;DHT22;11222;50.872;4.312;2022-09-21T06:42:57;11.20;99.90
22112;DHT22;11222;50.872;4.312;2022-09-21T06:45:23;11.30;99.90
22112;DHT22;11222;50.872;4.312;2022-09-21T06:47:49;11.50;99.90
22112;DHT22;11222;50.872;4.312;2022-09-21T06:50:15;11.60;99.90
22112;DHT22;11222;50.872;4.312;2022-09-21T06:52:41;11.50;99.90
22112;DHT22;11222;50.872;4.312;2022-09-21T06:55:07;11.50;99.90
22112;DHT22;11222;50.872;4.312;2022-09-21T06:57:34;11.60;99.90
22112;DHT22;11222;50.872;4.312;2022-09-21T07:00:01;11.70;99.90
22112;DHT22;11222;50.872;4.312;2022-09-21T07:02:27;11.70;99.90
22112;DHT22;11222;50.872;4.312;2022-09-21T07:04:53;11.60;99.90
22112;DHT22;11222;50.872;4.312;2022-09-21T07:07:19;11.70;99.90
22112;DHT22;11222;50.872;4.312;2022-09-21T07:09:44;11.70;99.90
22112;DHT22;11222;50.872;4.312;2022-09-21T07:12:10;11.80;99.90
22112;DHT22;11222;50.872;4.312;2022-09-21T07:14:36;11.80;99.90
22112;DHT22;11222;50.872;4.312;2022-09-21T07:17:01;11.90;99.90
22112;DHT22;11222;50.872;4.312;2022-09-21T07:19:27;11.90;99.90
22112;DHT22;11222;50.872;4.312;2022-09-21T07:21:53;11.90;99.90
22112;DHT22;11222;50.872;4.312;2022-09-21T07:24:19;12.00;99.90
22112;DHT22;11222;50.872;4.312;2022-09-21T07:26:44;12.10;99.90
22112;DHT22;11222;50.872;4.312;2022-09-21T07:29:10;12.20;99.90
22112;DHT22;11222;50.872;4.312;2022-09-21T07:31:36;12.20;99.90
22112;DHT22;11222;50.872;4.312;2022-09-21T07:34:02;12.20;99.90
22112;DHT22;11222;50.872;4.312;2022-09-21T07:36:28;12.10;99.90
22112;DHT22;11222;50.872;4.312;2022-09-21T07:38:53;12.10;99.90
22112;DHT22;11222;50.872;4.312;2022-09-21T07:41:19;12.10;99.90
22112;DHT22;11222;50.872;4.312;2022-09-21T07:43:45;12.10;99.90
22112;DHT22;11222;50.872;4.312;2022-09-21T07:46:13;12.40;99.90
22112;DHT22;11222;50.872;4.312;2022-09-21T07:48:39;12.30;99.90
22112;DHT22;11222;50.872;4.312;2022-09-21T07:51:14;12.20;99.90
22112;DHT22;11222;50.872;4.312;2022-09-21T07:53:42;12.20;99.90
22112;DHT22;11222;50.872;4.312;2022-09-21T07:56:12;12.40;99.90
22112;DHT22;11222;50.872;4.312;2022-09-21T07:58:38;12.20;99.90
22112;DHT22;11222;50.872;4.312;2022-09-21T08:01:23;12.30;99.90
22112;DHT22;11222;50.872;4.312;2022-09-21T08:03:50;12.30;99.90
22112;DHT22;11222;50.872;4.312;2022-09-21T08:06:16;12.50;99.90
22112;DHT22;11222;50.872;4.312;2022-09-21T08:08:42;12.80;99.90
22112;DHT22;11222;50.872;4.312;2022-09-21T08:11:08;13.00;99.90
22112;DHT22;11222;50.872;4.312;2022-09-21T08:13:36;13.10;99.90
22112;DHT22;11222;50.872;4.312;2022-09-21T08:16:02;13.00;99.90
22112;DHT22;11222;50.872;4.312;2022-09-21T08:18:28;13.00;99.90
22112;DHT22;11222;50.872;4.312;2022-09-21T08:21:00;13.20;99.90
22112;DHT22;11222;50.872;4.312;2022-09-21T08:23:26;13.50;99.90
22112;DHT22;11222;50.872;4.312;2022-09-21T08:26:03;13.50;99.90
22112;DHT22;11222;50.872;4.312;2022-09-21T08:28:33;13.40;99.90
22112;DHT22;11222;50.872;4.312;2022-09-21T08:31:04;13.20;99.90
22112;DHT22;11222;50.872;4.312;2022-09-21T08:33:30;13.40;99.90
22112;DHT22;11222;50.872;4.312;2022-09-21T08:35:58;13.50;99.90
22112;DHT22;11222;50.872;4.312;2022-09-21T08:38:24;13.60;99.90
22112;DHT22;11222;50.872;4.312;2022-09-21T08:40:52;13.60;99.90
22112;DHT22;11222;50.872;4.312;2022-09-21T08:43:47;13.70;99.90
22112;DHT22;11222;50.872;4.312;2022-09-21T08:46:17;13.90;99.90
22112;DHT22;11222;50.872;4.312;2022-09-21T08:49:04;14.00;99.90
22112;DHT22;11222;50.872;4.312;2022-09-21T08:51:35;14.00;99.90
22112;DHT22;11222;50.872;4.312;2022-09-21T08:54:11;14.30;99.90
22112;DHT22;11222;50.872;4.312;2022-09-21T08:56:39;14.40;99.90
22112;DHT22;11222;50.872;4.312;2022-09-21T08:59:11;14.20;99.90
22112;DHT22;11222;50.872;4.312;2022-09-21T09:04:49;14.40;99.90
22112;DHT22;11222;50.872;4.312;2022-09-21T09:10:22;15.10;99.90
22112;DHT22;11222;50.872;4.312;2022-09-21T09:13:18;15.70;99.90
22112;DHT22;11222;50.872;4.312;2022-09-21T09:18:44;15.90;99.90
22112;DHT22;11222;50.872;4.312;2022-09-21T09:21:22;16.50;99.90
22112;DHT22;11222;50.872;4.312;2022-09-21T09:24:55;17.50;99.90
22112;DHT22;11222;50.872;4.312;2022-09-21T09:26:58;18.10;99.90
22112;DHT22;11222;50.872;4.312;2022-09-21T09:29:51;19.20;99.90
22112;DHT22;11222;50.872;4.312;2022-09-21T09:32:16;20.30;99.90
22112;DHT22;11222;50.872;4.312;2022-09-21T09:34:54;20.00;99.90
22112;DHT22;11222;50.872;4.312;2022-09-21T09:37:27;19.70;99.90
22112;DHT22;11222;50.872;4.312;2022-09-21T09:39:56;19.30;99.90
22112;DHT22;11222;50.872;4.312;2022-09-21T09:45:28;20.10;99.90
22112;DHT22;11222;50.872;4.312;2022-09-21T09:48:28;20.10;99.90
22112;DHT22;11222;50.872;4.312;2022-09-21T09:50:56;20.60;99.90
22112;DHT22;11222;50.872;4.312;2022-09-21T09:53:24;23.40;99.90
22112;DHT22;11222;50.872;4.312;2022-09-21T09:55:55;23.10;99.90
22112;DHT22;11222;50.872;4.312;2022-09-21T10:00:51;27.10;99.90
22112;DHT22;11222;50.872;4.312;2022-09-21T10:03:20;28.30;99.90
22112;DHT22;11222;50.872;4.312;2022-09-21T10:05:46;26.50;99.80
22112;DHT22;11222;50.872;4.312;2022-09-21T10:08:40;24.50;99.90
22112;DHT22;11222;50.872;4.312;2022-09-21T10:11:07;24.20;99.90
22112;DHT22;11222;50.872;4.312;2022-09-21T10:13:37;23.80;99.90
22112;DHT22;11222;50.872;4.312;2022-09-21T10:16:18;22.50;99.90
22112;DHT22;11222;50.872;4.312;2022-09-21T10:18:56;25.60;99.90
22112;DHT22;11222;50.872;4.312;2022-09-21T10:21:36;24.50;99.90
22112;DHT22;11222;50.872;4.312;2022-09-21T10:24:06;22.80;99.90
22112;DHT22;11222;50.872;4.312;2022-09-21T10:26:48;25.30;99.90
22112;DHT22;11222;50.872;4.312;2022-09-21T10:31:57;25.70;99.90
22112;DHT22;11222;50.872;4.312;2022-09-21T10:34:25;24.10;99.90
22112;DHT22;11222;50.872;4.312;2022-09-21T10:36:54;24.90;99.90
22112;DHT22;11222;50.872;4.312;2022-09-21T10:39:31;24.40;99.90
22112;DHT22;11222;50.872;4.312;2022-09-21T10:44:45;25.20;99.90
22112;DHT22;11222;50.872;4.312;2022-09-21T10:50:00;25.20;98.00
22112;DHT22;11222;50.872;4.312;2022-09-21T10:52:39;21.80;99.90
22112;DHT22;11222;50.872;4.312;2022-09-21T10:55:17;21.70;99.90
22112;DHT22;11222;50.872;4.312;2022-09-21T10:57:45;22.30;99.90
22112;DHT22;11222;50.872;4.312;2022-09-21T11:02:46;23.10;99.90
22112;DHT22;11222;50.872;4.312;2022-09-21T11:05:33;25.20;98.70
22112;DHT22;11222;50.872;4.312;2022-09-21T11:08:09;26.70;96.00
22112;DHT22;11222;50.872;4.312;2022-09-21T11:13:31;28.50;89.60
22112;DHT22;11222;50.872;4.312;2022-09-21T11:16:12;28.40;89.10
22112;DHT22;11222;50.872;4.312;2022-09-21T11:18:48;26.50;90.80
22112;DHT22;11222;50.872;4.312;2022-09-21T11:24:48;27.20;90.10
22112;DHT22;11222;50.872;4.312;2022-09-21T11:29:59;29.20;84.30
22112;DHT22;11222;50.872;4.312;2022-09-21T11:57:30;29.70;78.20
22112;DHT22;11222;50.872;4.312;2022-09-21T12:05:57;26.10;80.20
22112;DHT22;11222;50.872;4.312;2022-09-21T12:11:38;23.30;87.90
22112;DHT22;11222;50.872;4.312;2022-09-21T12:14:36;22.60;89.60
22112;DHT22;11222;50.872;4.312;2022-09-21T12:22:27;21.10;91.10
22112;DHT22;11222;50.872;4.312;2022-09-21T12:25:31;20.60;91.90
22112;DHT22;11222;50.872;4.312;2022-09-21T12:28:30;20.10;93.50
22112;DHT22;11222;50.872;4.312;2022-09-21T12:34:18;19.60;94.30
22112;DHT22;11222;50.872;4.312;2022-09-21T12:39:28;19.30;95.30
22112;DHT22;11222;50.872;4.312;2022-09-21T12:44:55;19.00;96.70
22112;DHT22;11222;50.872;4.312;2022-09-21T12:47:56;19.00;97.50
22112;DHT22;11222;50.872;4.312;2022-09-21T12:50:45;19.20;97.40
22112;DHT22;11222;50.872;4.312;2022-09-21T12:53:21;19.20;98.20
22112;DHT22;11222;50.872;4.312;2022-09-21T12:56:04;19.30;98.80
22112;DHT22;11222;50.872;4.312;2022-09-21T13:01:49;19.40;99.90
22112;DHT22;11222;50.872;4.312;2022-09-21T13:09:42;19.00;99.90
22112;DHT22;11222;50.872;4.312;2022-09-21T13:14:44;19.00;98.90
22112;DHT22;11222;50.872;4.312;2022-09-21T13:17:27;19.20;99.50
22112;DHT22;11222;50.872;4.312;2022-09-21T13:20:15;18.90;99.90
22112;DHT22;11222;50.872;4.312;2022-09-21T13:22:43;19.00;99.90
22112;DHT22;11222;50.872;4.312;2022-09-21T13:25:21;19.20;99.90
22112;DHT22;11222;50.872;4.312;2022-09-21T13:41:24;20.00;99.90
22112;DHT22;11222;50.872;4.312;2022-09-21T13:54:17;18.70;99.90
22112;DHT22;11222;50.872;4.312;2022-09-21T13:56:45;18.70;99.90
22112;DHT22;11222;50.872;4.312;2022-09-21T13:59:23;18.40;99.90
22112;DHT22;11222;50.872;4.312;2022-09-21T14:01:50;17.90;99.90
22112;DHT22;11222;50.872;4.312;2022-09-21T14:06:48;17.80;99.90
22112;DHT22;11222;50.872;4.312;2022-09-21T14:09:57;17.80;99.90
22112;DHT22;11222;50.872;4.312;2022-09-21T14:12:25;18.10;99.90
22112;DHT22;11222;50.872;4.312;2022-09-21T14:17:41;18.30;99.90
22112;DHT22;11222;50.872;4.312;2022-09-21T14:20:30;18.20;99.90
22112;DHT22;11222;50.872;4.312;2022-09-21T14:23:25;18.50;99.90
22112;DHT22;11222;50.872;4.312;2022-09-21T14:28:47;19.00;99.90
22112;DHT22;11222;50.872;4.312;2022-09-21T14:31:25;18.90;99.90
22112;DHT22;11222;50.872;4.312;2022-09-21T14:33:55;18.80;99.90
22112;DHT22;11222;50.872;4.312;2022-09-21T14:36:27;18.90;99.90
22112;DHT22;11222;50.872;4.312;2022-09-21T14:39:02;18.60;99.90
22112;DHT22;11222;50.872;4.312;2022-09-21T14:41:32;18.90;99.90
22112;DHT22;11222;50.872;4.312;2022-09-21T14:44:01;18.70;99.90
22112;DHT22;11222;50.872;4.312;2022-09-21T14:46:53;18.50;99.90
22112;DHT22;11222;50.872;4.312;2022-09-21T14:50:01;18.50;99.90
22112;DHT22;11222;50.872;4.312;2022-09-21T14:52:35;18.20;99.90
22112;DHT22;11222;50.872;4.312;2022-09-21T14:58:12;17.80;99.90
22112;DHT22;11222;50.872;4.312;2022-09-21T15:00:44;17.80;99.90
22112;DHT22;11222;50.872;4.312;2022-09-21T15:03:46;17.80;99.90
22112;DHT22;11222;50.872;4.312;2022-09-21T15:06:20;17.70;99.90
22112;DHT22;11222;50.872;4.312;2022-09-21T15:15:33;17.80;99.90
22112;DHT22;11222;50.872;4.312;2022-09-21T15:18:21;18.20;99.90
22112;DHT22;11222;50.872;4.312;2022-09-21T15:20:58;18.50;99.90
22112;DHT22;11222;50.872;4.312;2022-09-21T15:23:37;18.70;99.90
22112;DHT22;11222;50.872;4.312;2022-09-21T15:26:09;18.90;99.90
22112;DHT22;11222;50.872;4.312;2022-09-21T15:28:42;19.00;99.90
22112;DHT22;11222;50.872;4.312;2022-09-21T15:31:13;18.80;99.90
22112;DHT22;11222;50.872;4.312;2022-09-21T15:33:41;18.70;99.90
22112;DHT22;11222;50.872;4.312;2022-09-21T15:36:11;18.70;99.90
22112;DHT22;11222;50.872;4.312;2022-09-21T15:38:37;18.70;99.90
22112;DHT22;11222;50.872;4.312;2022-09-21T15:41:04;18.60;99.90
22112;DHT22;11222;50.872;4.312;2022-09-21T15:43:33;18.70;99.90
22112;DHT22;11222;50.872;4.312;2022-09-21T15:46:01;18.80;99.90
22112;DHT22;11222;50.872;4.312;2022-09-21T15:48:38;18.70;99.90
22112;DHT22;11222;50.872;4.312;2022-09-21T15:51:25;18.70;99.90
22112;DHT22;11222;50.872;4.312;2022-09-21T15:56:50;18.50;99.90
22112;DHT22;11222;50.872;4.312;2022-09-21T15:59:18;18.60;99.90
22112;DHT22;11222;50.872;4.312;2022-09-21T16:01:47;18.80;99.90
22112;DHT22;11222;50.872;4.312;2022-09-21T16:04:21;18.60;99.90
22112;DHT22;11222;50.872;4.312;2022-09-21T16:09:52;18.00;99.90
22112;DHT22;11222;50.872;4.312;2022-09-21T16:12:41;17.90;99.90
22112;DHT22;11222;50.872;4.312;2022-09-21T16:15:27;17.90;99.90
22112;DHT22;11222;50.872;4.312;2022-09-21T16:17:57;17.90;99.90
22112;DHT22;11222;50.872;4.312;2022-09-21T16:20:41;17.90;99.90
22112;DHT22;11222;50.872;4.312;2022-09-21T16:23:21;17.90;99.90
22112;DHT22;11222;50.872;4.312;2022-09-21T16:25:59;17.90;99.90
22112;DHT22;11222;50.872;4.312;2022-09-21T16:28:36;17.70;99.90
22112;DHT22;11222;50.872;4.312;2022-09-21T16:38:44;17.50;99.90
22112;DHT22;11222;50.872;4.312;2022-09-21T16:41:12;17.40;99.90
22112;DHT22;11222;50.872;4.312;2022-09-21T16:43:39;17.40;99.90
22112;DHT22;11222;50.872;4.312;2022-09-21T16:46:12;17.30;99.90
22112;DHT22;11222;50.872;4.312;2022-09-21T16:48:38;17.20;99.90
22112;DHT22;11222;50.872;4.312;2022-09-21T16:51:11;17.20;99.90
22112;DHT22;11222;50.872;4.312;2022-09-21T16:53:38;17.20;99.90
22112;DHT22;11222;50.872;4.312;2022-09-21T16:56:04;17.20;99.90
22112;DHT22;11222;50.872;4.312;2022-09-21T16:58:31;17.20;99.90
22112;DHT22;11222;50.872;4.312;2022-09-21T17:00:57;17.30;99.90
22112;DHT22;11222;50.872;4.312;2022-09-21T17:03:23;17.10;99.90
22112;DHT22;11222;50.872;4.312;2022-09-21T17:05:49;17.10;99.90
22112;DHT22;11222;50.872;4.312;2022-09-21T17:08:14;17.00;99.90
22112;DHT22;11222;50.872;4.312;2022-09-21T17:10:43;17.00;99.90
22112;DHT22;11222;50.872;4.312;2022-09-21T17:13:10;16.90;99.90
22112;DHT22;11222;50.872;4.312;2022-09-21T17:15:39;17.00;99.90
22112;DHT22;11222;50.872;4.312;2022-09-21T17:18:09;17.10;99.90
22112;DHT22;11222;50.872;4.312;2022-09-21T17:20:39;17.20;99.90
22112;DHT22;11222;50.872;4.312;2022-09-21T17:23:06;17.00;99.90
22112;DHT22;11222;50.872;4.312;2022-09-21T17:25:33;16.90;99.90
22112;DHT22;11222;50.872;4.312;2022-09-21T17:28:00;16.90;99.90
22112;DHT22;11222;50.872;4.312;2022-09-21T17:30:27;16.80;99.90
22112;DHT22;11222;50.872;4.312;2022-09-21T17:32:53;16.90;99.90
22112;DHT22;11222;50.872;4.312;2022-09-21T17:35:32;17.00;99.90
22112;DHT22;11222;50.872;4.312;2022-09-21T17:37:59;17.10;99.90
22112;DHT22;11222;50.872;4.312;2022-09-21T17:40:26;17.10;99.90
22112;DHT22;11222;50.872;4.312;2022-09-21T17:43:05;17.00;99.90
22112;DHT22;11222;50.872;4.312;2022-09-21T17:48:21;17.00;99.90
22112;DHT22;11222;50.872;4.312;2022-09-21T17:50:48;16.90;99.90
22112;DHT22;11222;50.872;4.312;2022-09-21T17:53:14;16.90;99.90
22112;DHT22;11222;50.872;4.312;2022-09-21T17:59:02;16.70;99.90
22112;DHT22;11222;50.872;4.312;2022-09-21T18:01:33;16.70;99.90
22112;DHT22;11222;50.872;4.312;2022-09-21T18:04:07;16.60;99.90
22112;DHT22;11222;50.872;4.312;2022-09-21T18:06:35;16.50;99.90
22112;DHT22;11222;50.872;4.312;2022-09-21T18:09:01;16.50;99.90
22112;DHT22;11222;50.872;4.312;2022-09-21T18:19:39;16.30;99.90
22112;DHT22;11222;50.872;4.312;2022-09-21T18:23:04;16.30;99.90
22112;DHT22;11222;50.872;4.312;2022-09-21T18:25:31;16.20;99.90
22112;DHT22;11222;50.872;4.312;2022-09-21T18:27:58;16.10;99.90
22112;DHT22;11222;50.872;4.312;2022-09-21T18:30:26;16.10;99.90
22112;DHT22;11222;50.872;4.312;2022-09-21T18:35:32;16.00;99.90
22112;DHT22;11222;50.872;4.312;2022-09-21T18:38:42;15.90;99.90
22112;DHT22;11222;50.872;4.312;2022-09-21T18:49:20;15.80;99.90
22112;DHT22;11222;50.872;4.312;2022-09-21T18:54:51;15.60;99.90
22112;DHT22;11222;50.872;4.312;2022-09-21T18:57:18;15.60;99.90
22112;DHT22;11222;50.872;4.312;2022-09-21T18:59:44;15.50;99.90
22112;DHT22;11222;50.872;4.312;2022-09-21T19:02:12;15.50;99.90
22112;DHT22;11222;50.872;4.312;2022-09-21T19:04:40;15.50;99.90
22112;DHT22;11222;50.872;4.312;2022-09-21T19:07:16;15.40;99.90
22112;DHT22;11222;50.872;4.312;2022-09-21T19:09:56;15.40;99.90
22112;DHT22;11222;50.872;4.312;2022-09-21T19:15:26;15.40;99.90
22112;DHT22;11222;50.872;4.312;2022-09-21T19:31:19;15.30;99.90
22112;DHT22;11222;50.872;4.312;2022-09-21T19:33:46;15.10;99.90
22112;DHT22;11222;50.872;4.312;2022-09-21T19:36:12;15.20;99.90
22112;DHT22;11222;50.872;4.312;2022-09-21T19:38:39;15.20;99.90
22112;DHT22;11222;50.872;4.312;2022-09-21T19:41:28;15.10;99.90
22112;DHT22;11222;50.872;4.312;2022-09-21T19:49:47;14.90;99.90
22112;DHT22;11222;50.872;4.312;2022-09-21T19:52:16;14.90;99.90
22112;DHT22;11222;50.872;4.312;2022-09-21T19:54:43;14.80;99.90
22112;DHT22;11222;50.872;4.312;2022-09-21T19:57:28;14.80;99.90
22112;DHT22;11222;50.872;4.312;2022-09-21T20:00:14;14.80;99.90
22112;DHT22;11222;50.872;4.312;2022-09-21T20:03:01;14.70;99.90
22112;DHT22;11222;50.872;4.312;2022-09-21T20:18:35;14.60;99.90